Airfield :
LOGIN :

Register | Disclaimer

   EN    FR    IT 

 










Legend :    VFR   Marginal VFR   IFR   Intensive IFR   Very Intensive IFR
Visi :
Ceiling :
>= 8 km
>= 3000ft
5 to 8 km
1000 to 3000 ft
1500m to 5 km
500 to 1000 ft
800 to 1500m
200 to 500 ft
< 800m
< 200 ft
Symbols :   Thunderstorms  Fog  Heavy snow  Heavy precipitations  Wind > 20 kt
SIGMETs :     Misc.  Thunderstorms  Icing  Turbulence  Mountain Waves  Volcanic Ashes






- Airport Elevation : 284 ft


EGUW - RAF Wattisham

CURRENT METAR :
  • 212350Z AUTO 34006KT 9999 OVC130/// 04/02 Q1030

EXPIRED METARs :
  • 212320Z AUTO 36005KT 9999 OVC130/// 04/02 Q1030
  • 212250Z AUTO 36006KT 9999 OVC140/// 03/02 Q1030
  • 212220Z AUTO 35007KT 9999 FEW150/// 03/02 Q1030
  • 212150Z AUTO 35007KT 9999 NCD 03/01 Q1030
  • 212120Z AUTO 36007KT 9999 NCD 03/01 Q1030
  • 212050Z AUTO 36007KT 9999 NCD 03/01 Q1030
  • 212020Z AUTO 01007KT 9999 SCT028/// 03/00 Q1030
  • 211950Z AUTO 01008KT 9999 NCD 04/01 Q1030
  • 211920Z AUTO 02007KT 9999 FEW032/// 04/00 Q1030

Expired Forecast.



MET'MAP, your aeronautical weather chart ! - Copyright ORBIFLY December 2007 - Disclaimer

ORBIFLY MET'MAP TEAM :

Programming & Development : Alexandra Zaïnal
Original concept : Baudouin d'Aumeries
Technical & hardware support : Manuel Goepfert
Assistance : Marc-Olivier Méhu




SOURCES & CREDITS :

   NOAA